sensor_id;sensor_type;location;lat;lon;timestamp;P1;durP1;ratioP1;P2;durP2;ratioP2
59093;SDS011;44880;52.814;18.270;2023-02-15T00:00:02;44.00;;;22.90;;
59093;SDS011;44880;52.814;18.270;2023-02-15T00:02:56;46.30;;;24.20;;
59093;SDS011;44880;52.814;18.270;2023-02-15T00:05:28;46.50;;;23.10;;
59093;SDS011;44880;52.814;18.270;2023-02-15T00:08:01;42.70;;;22.00;;
59093;SDS011;44880;52.814;18.270;2023-02-15T00:10:33;41.40;;;21.50;;
59093;SDS011;44880;52.814;18.270;2023-02-15T00:13:04;39.80;;;20.00;;
59093;SDS011;44880;52.814;18.270;2023-02-15T00:15:36;41.00;;;22.60;;
59093;SDS011;44880;52.814;18.270;2023-02-15T00:18:08;45.60;;;21.30;;
59093;SDS011;44880;52.814;18.270;2023-02-15T00:20:39;38.00;;;20.20;;
59093;SDS011;44880;52.814;18.270;2023-02-15T00:23:11;41.90;;;22.30;;
59093;SDS011;44880;52.814;18.270;2023-02-15T00:25:43;44.50;;;22.00;;
59093;SDS011;44880;52.814;18.270;2023-02-15T00:28:14;41.10;;;21.40;;
59093;SDS011;44880;52.814;18.270;2023-02-15T00:30:46;42.00;;;21.00;;
59093;SDS011;44880;52.814;18.270;2023-02-15T00:33:18;50.70;;;23.60;;
59093;SDS011;44880;52.814;18.270;2023-02-15T00:35:55;58.90;;;26.20;;
59093;SDS011;44880;52.814;18.270;2023-02-15T00:38:27;58.50;;;29.00;;
59093;SDS011;44880;52.814;18.270;2023-02-15T00:40:59;54.70;;;27.30;;
59093;SDS011;44880;52.814;18.270;2023-02-15T00:43:34;54.40;;;25.40;;
59093;SDS011;44880;52.814;18.270;2023-02-15T00:46:14;49.90;;;23.20;;
59093;SDS011;44880;52.814;18.270;2023-02-15T00:48:45;45.50;;;23.60;;
59093;SDS011;44880;52.814;18.270;2023-02-15T00:51:17;45.20;;;22.80;;
59093;SDS011;44880;52.814;18.270;2023-02-15T00:53:49;42.30;;;22.50;;
59093;SDS011;44880;52.814;18.270;2023-02-15T00:56:22;50.70;;;23.60;;
59093;SDS011;44880;52.814;18.270;2023-02-15T00:58:53;52.30;;;23.60;;
59093;SDS011;44880;52.814;18.270;2023-02-15T01:01:25;58.30;;;25.90;;
59093;SDS011;44880;52.814;18.270;2023-02-15T01:03:57;51.70;;;26.70;;
59093;SDS011;44880;52.814;18.270;2023-02-15T01:06:31;50.90;;;24.70;;
59093;SDS011;44880;52.814;18.270;2023-02-15T01:09:02;51.90;;;25.20;;
59093;SDS011;44880;52.814;18.270;2023-02-15T01:11:34;45.90;;;22.60;;
59093;SDS011;44880;52.814;18.270;2023-02-15T01:14:06;46.90;;;21.80;;
59093;SDS011;44880;52.814;18.270;2023-02-15T01:16:40;48.80;;;23.30;;
59093;SDS011;44880;52.814;18.270;2023-02-15T01:19:12;47.50;;;23.70;;
59093;SDS011;44880;52.814;18.270;2023-02-15T01:24:13;49.80;;;24.40;;
59093;SDS011;44880;52.814;18.270;2023-02-15T01:26:45;55.90;;;27.80;;
59093;SDS011;44880;52.814;18.270;2023-02-15T01:29:17;61.20;;;32.00;;
59093;SDS011;44880;52.814;18.270;2023-02-15T01:34:19;50.90;;;24.80;;
59093;SDS011;44880;52.814;18.270;2023-02-15T01:36:50;46.60;;;21.90;;
59093;SDS011;44880;52.814;18.270;2023-02-15T01:39:22;43.00;;;22.20;;
59093;SDS011;44880;52.814;18.270;2023-02-15T01:41:54;44.50;;;21.60;;
59093;SDS011;44880;52.814;18.270;2023-02-15T01:44:48;44.00;;;21.70;;
59093;SDS011;44880;52.814;18.270;2023-02-15T01:47:22;43.70;;;21.50;;
59093;SDS011;44880;52.814;18.270;2023-02-15T01:49:58;39.20;;;19.50;;
59093;SDS011;44880;52.814;18.270;2023-02-15T01:52:33;39.50;;;20.40;;
59093;SDS011;44880;52.814;18.270;2023-02-15T01:55:07;38.40;;;20.20;;
59093;SDS011;44880;52.814;18.270;2023-02-15T01:57:40;43.10;;;20.70;;
59093;SDS011;44880;52.814;18.270;2023-02-15T02:00:15;40.40;;;21.00;;
59093;SDS011;44880;52.814;18.270;2023-02-15T02:02:48;42.60;;;19.90;;
59093;SDS011;44880;52.814;18.270;2023-02-15T02:05:26;46.10;;;20.30;;
59093;SDS011;44880;52.814;18.270;2023-02-15T02:07:58;46.10;;;20.60;;
59093;SDS011;44880;52.814;18.270;2023-02-15T02:10:33;39.80;;;19.00;;
59093;SDS011;44880;52.814;18.270;2023-02-15T02:15:37;55.50;;;23.90;;
59093;SDS011;44880;52.814;18.270;2023-02-15T02:18:18;54.80;;;23.90;;
59093;SDS011;44880;52.814;18.270;2023-02-15T02:23:55;47.10;;;22.80;;
59093;SDS011;44880;52.814;18.270;2023-02-15T02:29:47;42.80;;;20.60;;
59093;SDS011;44880;52.814;18.270;2023-02-15T02:32:52;50.70;;;22.90;;
59093;SDS011;44880;52.814;18.270;2023-02-15T02:35:44;52.70;;;24.50;;
59093;SDS011;44880;52.814;18.270;2023-02-15T02:38:23;45.60;;;22.50;;
59093;SDS011;44880;52.814;18.270;2023-02-15T02:41:00;48.60;;;25.30;;
59093;SDS011;44880;52.814;18.270;2023-02-15T02:43:43;53.60;;;24.80;;
59093;SDS011;44880;52.814;18.270;2023-02-15T02:46:22;48.80;;;24.00;;
59093;SDS011;44880;52.814;18.270;2023-02-15T02:48:57;58.10;;;27.80;;
59093;SDS011;44880;52.814;18.270;2023-02-15T02:51:28;64.50;;;29.70;;
59093;SDS011;44880;52.814;18.270;2023-02-15T02:54:00;56.00;;;27.90;;
59093;SDS011;44880;52.814;18.270;2023-02-15T02:56:35;52.90;;;23.80;;
59093;SDS011;44880;52.814;18.270;2023-02-15T02:59:09;45.30;;;23.30;;
59093;SDS011;44880;52.814;18.270;2023-02-15T03:01:45;44.80;;;21.70;;
59093;SDS011;44880;52.814;18.270;2023-02-15T03:04:18;42.30;;;22.70;;
59093;SDS011;44880;52.814;18.270;2023-02-15T03:06:52;52.80;;;27.30;;
59093;SDS011;44880;52.814;18.270;2023-02-15T03:09:26;46.70;;;24.20;;
59093;SDS011;44880;52.814;18.270;2023-02-15T03:12:10;54.80;;;26.30;;
59093;SDS011;44880;52.814;18.270;2023-02-15T03:14:46;48.20;;;24.20;;
59093;SDS011;44880;52.814;18.270;2023-02-15T03:17:21;49.00;;;25.10;;
59093;SDS011;44880;52.814;18.270;2023-02-15T03:19:54;51.50;;;26.70;;
59093;SDS011;44880;52.814;18.270;2023-02-15T03:22:30;53.20;;;26.60;;
59093;SDS011;44880;52.814;18.270;2023-02-15T03:25:06;58.10;;;28.70;;
59093;SDS011;44880;52.814;18.270;2023-02-15T03:27:42;59.80;;;29.60;;
59093;SDS011;44880;52.814;18.270;2023-02-15T03:30:17;52.80;;;27.40;;
59093;SDS011;44880;52.814;18.270;2023-02-15T03:32:50;54.60;;;25.90;;
59093;SDS011;44880;52.814;18.270;2023-02-15T03:35:23;47.30;;;23.70;;
59093;SDS011;44880;52.814;18.270;2023-02-15T03:37:59;49.40;;;26.00;;
59093;SDS011;44880;52.814;18.270;2023-02-15T03:40:31;52.20;;;25.50;;
59093;SDS011;44880;52.814;18.270;2023-02-15T03:43:23;50.40;;;26.30;;
59093;SDS011;44880;52.814;18.270;2023-02-15T03:46:01;53.80;;;26.50;;
59093;SDS011;44880;52.814;18.270;2023-02-15T03:48:38;52.80;;;27.60;;
59093;SDS011;44880;52.814;18.270;2023-02-15T03:51:12;54.80;;;29.20;;
59093;SDS011;44880;52.814;18.270;2023-02-15T03:54:03;54.40;;;30.00;;
59093;SDS011;44880;52.814;18.270;2023-02-15T03:56:37;57.80;;;29.50;;
59093;SDS011;44880;52.814;18.270;2023-02-15T03:59:09;58.70;;;30.20;;
59093;SDS011;44880;52.814;18.270;2023-02-15T04:02:02;53.40;;;28.20;;
59093;SDS011;44880;52.814;18.270;2023-02-15T04:04:45;57.80;;;29.90;;
59093;SDS011;44880;52.814;18.270;2023-02-15T04:07:17;64.40;;;32.50;;
59093;SDS011;44880;52.814;18.270;2023-02-15T04:09:48;56.80;;;29.90;;
59093;SDS011;44880;52.814;18.270;2023-02-15T04:12:37;55.60;;;29.20;;
59093;SDS011;44880;52.814;18.270;2023-02-15T04:15:11;50.10;;;26.80;;
59093;SDS011;44880;52.814;18.270;2023-02-15T04:18:00;51.80;;;27.70;;
59093;SDS011;44880;52.814;18.270;2023-02-15T04:20:33;50.70;;;25.50;;
59093;SDS011;44880;52.814;18.270;2023-02-15T04:23:23;49.60;;;25.80;;
59093;SDS011;44880;52.814;18.270;2023-02-15T04:26:12;48.80;;;26.90;;
59093;SDS011;44880;52.814;18.270;2023-02-15T04:31:13;58.70;;;30.40;;
59093;SDS011;44880;52.814;18.270;2023-02-15T04:33:45;60.90;;;32.00;;
59093;SDS011;44880;52.814;18.270;2023-02-15T04:36:17;60.60;;;31.70;;
59093;SDS011;44880;52.814;18.270;2023-02-15T04:38:49;73.30;;;36.00;;
59093;SDS011;44880;52.814;18.270;2023-02-15T04:41:20;66.30;;;33.00;;
59093;SDS011;44880;52.814;18.270;2023-02-15T04:43:52;61.20;;;31.90;;
59093;SDS011;44880;52.814;18.270;2023-02-15T04:46:24;55.80;;;30.00;;
59093;SDS011;44880;52.814;18.270;2023-02-15T04:48:56;54.60;;;30.10;;
59093;SDS011;44880;52.814;18.270;2023-02-15T04:51:28;58.80;;;31.00;;
59093;SDS011;44880;52.814;18.270;2023-02-15T04:54:00;59.00;;;30.30;;
59093;SDS011;44880;52.814;18.270;2023-02-15T04:56:31;65.00;;;31.80;;
59093;SDS011;44880;52.814;18.270;2023-02-15T04:59:05;58.90;;;31.00;;
59093;SDS011;44880;52.814;18.270;2023-02-15T05:01:38;54.70;;;30.10;;
59093;SDS011;44880;52.814;18.270;2023-02-15T05:04:10;56.20;;;29.50;;
59093;SDS011;44880;52.814;18.270;2023-02-15T05:06:42;56.50;;;29.40;;
59093;SDS011;44880;52.814;18.270;2023-02-15T05:09:13;61.40;;;31.50;;
59093;SDS011;44880;52.814;18.270;2023-02-15T05:11:45;55.90;;;30.00;;
59093;SDS011;44880;52.814;18.270;2023-02-15T05:14:17;61.10;;;32.00;;
59093;SDS011;44880;52.814;18.270;2023-02-15T05:16:49;67.20;;;34.50;;
59093;SDS011;44880;52.814;18.270;2023-02-15T05:19:22;76.40;;;36.10;;
59093;SDS011;44880;52.814;18.270;2023-02-15T05:21:53;68.20;;;35.60;;
59093;SDS011;44880;52.814;18.270;2023-02-15T05:24:25;61.30;;;31.70;;
59093;SDS011;44880;52.814;18.270;2023-02-15T05:27:14;58.10;;;31.00;;
59093;SDS011;44880;52.814;18.270;2023-02-15T05:30:04;60.40;;;32.00;;
59093;SDS011;44880;52.814;18.270;2023-02-15T05:32:39;62.40;;;35.20;;
59093;SDS011;44880;52.814;18.270;2023-02-15T05:35:13;64.70;;;36.10;;
59093;SDS011;44880;52.814;18.270;2023-02-15T05:37:45;73.20;;;37.50;;
59093;SDS011;44880;52.814;18.270;2023-02-15T05:40:17;66.20;;;36.60;;
59093;SDS011;44880;52.814;18.270;2023-02-15T05:42:49;65.00;;;36.20;;
59093;SDS011;44880;52.814;18.270;2023-02-15T05:45:20;71.40;;;38.20;;
59093;SDS011;44880;52.814;18.270;2023-02-15T05:47:52;69.10;;;37.30;;
59093;SDS011;44880;52.814;18.270;2023-02-15T05:50:26;66.80;;;37.60;;
59093;SDS011;44880;52.814;18.270;2023-02-15T05:53:01;77.30;;;40.30;;
59093;SDS011;44880;52.814;18.270;2023-02-15T05:55:33;69.30;;;37.90;;
59093;SDS011;44880;52.814;18.270;2023-02-15T05:58:04;86.30;;;43.30;;
59093;SDS011;44880;52.814;18.270;2023-02-15T06:00:36;95.80;;;46.40;;
59093;SDS011;44880;52.814;18.270;2023-02-15T06:03:08;91.00;;;46.00;;
59093;SDS011;44880;52.814;18.270;2023-02-15T06:05:39;102.50;;;46.80;;
59093;SDS011;44880;52.814;18.270;2023-02-15T06:08:11;92.20;;;44.60;;
59093;SDS011;44880;52.814;18.270;2023-02-15T06:10:43;100.50;;;44.50;;
59093;SDS011;44880;52.814;18.270;2023-02-15T06:13:16;99.40;;;44.50;;
59093;SDS011;44880;52.814;18.270;2023-02-15T06:18:18;81.50;;;39.60;;
59093;SDS011;44880;52.814;18.270;2023-02-15T06:20:50;70.70;;;36.70;;
59093;SDS011;44880;52.814;18.270;2023-02-15T06:23:21;64.40;;;34.30;;
59093;SDS011;44880;52.814;18.270;2023-02-15T06:25:56;71.50;;;35.90;;
59093;SDS011;44880;52.814;18.270;2023-02-15T06:28:28;72.00;;;33.80;;
59093;SDS011;44880;52.814;18.270;2023-02-15T06:31:00;68.90;;;37.90;;
59093;SDS011;44880;52.814;18.270;2023-02-15T06:33:32;68.80;;;36.80;;
59093;SDS011;44880;52.814;18.270;2023-02-15T06:36:04;68.90;;;34.80;;
59093;SDS011;44880;52.814;18.270;2023-02-15T06:38:36;81.10;;;39.20;;
59093;SDS011;44880;52.814;18.270;2023-02-15T06:41:07;84.50;;;41.70;;
59093;SDS011;44880;52.814;18.270;2023-02-15T06:43:40;82.60;;;42.50;;
59093;SDS011;44880;52.814;18.270;2023-02-15T06:46:11;77.90;;;39.30;;
59093;SDS011;44880;52.814;18.270;2023-02-15T06:48:43;83.10;;;42.60;;
59093;SDS011;44880;52.814;18.270;2023-02-15T06:53:45;78.30;;;39.00;;
59093;SDS011;44880;52.814;18.270;2023-02-15T06:56:17;73.00;;;39.40;;
59093;SDS011;44880;52.814;18.270;2023-02-15T06:58:56;68.30;;;37.60;;
59093;SDS011;44880;52.814;18.270;2023-02-15T07:01:28;68.70;;;36.80;;
59093;SDS011;44880;52.814;18.270;2023-02-15T07:03:59;66.30;;;36.30;;
59093;SDS011;44880;52.814;18.270;2023-02-15T07:06:32;66.70;;;39.00;;
59093;SDS011;44880;52.814;18.270;2023-02-15T07:09:04;80.20;;;41.90;;
59093;SDS011;44880;52.814;18.270;2023-02-15T07:11:36;67.00;;;33.80;;
59093;SDS011;44880;52.814;18.270;2023-02-15T07:14:25;75.70;;;36.80;;
59093;SDS011;44880;52.814;18.270;2023-02-15T07:16:57;78.40;;;36.60;;
59093;SDS011;44880;52.814;18.270;2023-02-15T07:21:59;75.60;;;37.50;;
59093;SDS011;44880;52.814;18.270;2023-02-15T07:24:32;72.40;;;36.50;;
59093;SDS011;44880;52.814;18.270;2023-02-15T07:27:04;69.70;;;34.80;;
59093;SDS011;44880;52.814;18.270;2023-02-15T07:29:37;62.10;;;32.70;;
59093;SDS011;44880;52.814;18.270;2023-02-15T07:32:09;62.80;;;35.40;;
59093;SDS011;44880;52.814;18.270;2023-02-15T07:34:41;63.90;;;33.60;;
59093;SDS011;44880;52.814;18.270;2023-02-15T07:37:14;68.20;;;36.10;;
59093;SDS011;44880;52.814;18.270;2023-02-15T07:39:45;65.80;;;34.20;;
59093;SDS011;44880;52.814;18.270;2023-02-15T07:42:17;58.70;;;31.30;;
59093;SDS011;44880;52.814;18.270;2023-02-15T07:44:50;55.60;;;30.00;;
59093;SDS011;44880;52.814;18.270;2023-02-15T07:47:28;57.40;;;32.40;;
59093;SDS011;44880;52.814;18.270;2023-02-15T07:50:00;59.80;;;31.70;;
59093;SDS011;44880;52.814;18.270;2023-02-15T07:52:31;59.00;;;32.00;;
59093;SDS011;44880;52.814;18.270;2023-02-15T07:55:04;65.10;;;34.70;;
59093;SDS011;44880;52.814;18.270;2023-02-15T07:57:37;69.80;;;34.80;;
59093;SDS011;44880;52.814;18.270;2023-02-15T08:00:10;70.10;;;34.90;;
59093;SDS011;44880;52.814;18.270;2023-02-15T08:02:43;61.00;;;32.10;;
59093;SDS011;44880;52.814;18.270;2023-02-15T08:05:40;53.70;;;28.50;;
59093;SDS011;44880;52.814;18.270;2023-02-15T08:08:12;54.90;;;28.90;;
59093;SDS011;44880;52.814;18.270;2023-02-15T08:11:17;48.60;;;26.70;;
59093;SDS011;44880;52.814;18.270;2023-02-15T08:14:02;50.70;;;28.20;;
59093;SDS011;44880;52.814;18.270;2023-02-15T08:16:37;61.70;;;32.40;;
59093;SDS011;44880;52.814;18.270;2023-02-15T08:19:10;67.70;;;34.30;;
59093;SDS011;44880;52.814;18.270;2023-02-15T08:21:44;63.90;;;35.30;;
59093;SDS011;44880;52.814;18.270;2023-02-15T08:24:18;65.90;;;35.50;;
59093;SDS011;44880;52.814;18.270;2023-02-15T08:27:02;74.80;;;38.80;;
59093;SDS011;44880;52.814;18.270;2023-02-15T08:29:35;66.00;;;33.60;;
59093;SDS011;44880;52.814;18.270;2023-02-15T08:32:11;65.70;;;32.50;;
59093;SDS011;44880;52.814;18.270;2023-02-15T08:34:47;57.10;;;30.50;;
59093;SDS011;44880;52.814;18.270;2023-02-15T08:39:49;50.80;;;26.90;;
59093;SDS011;44880;52.814;18.270;2023-02-15T08:44:52;57.60;;;29.20;;
59093;SDS011;44880;52.814;18.270;2023-02-15T08:47:25;46.30;;;24.10;;
59093;SDS011;44880;52.814;18.270;2023-02-15T08:50:06;51.00;;;25.40;;
59093;SDS011;44880;52.814;18.270;2023-02-15T08:52:42;44.90;;;24.20;;
59093;SDS011;44880;52.814;18.270;2023-02-15T08:55:27;49.80;;;26.00;;
59093;SDS011;44880;52.814;18.270;2023-02-15T08:57:59;44.20;;;26.20;;
59093;SDS011;44880;52.814;18.270;2023-02-15T09:00:31;48.20;;;26.10;;
59093;SDS011;44880;52.814;18.270;2023-02-15T09:05:33;47.90;;;25.90;;
59093;SDS011;44880;52.814;18.270;2023-02-15T09:08:07;47.60;;;25.50;;
59093;SDS011;44880;52.814;18.270;2023-02-15T09:10:39;45.90;;;24.90;;
59093;SDS011;44880;52.814;18.270;2023-02-15T09:13:11;50.60;;;25.60;;
59093;SDS011;44880;52.814;18.270;2023-02-15T09:15:44;46.10;;;24.20;;
59093;SDS011;44880;52.814;18.270;2023-02-15T09:18:17;44.10;;;24.80;;
59093;SDS011;44880;52.814;18.270;2023-02-15T09:20:49;47.50;;;25.30;;
59093;SDS011;44880;52.814;18.270;2023-02-15T09:23:21;40.90;;;24.30;;
59093;SDS011;44880;52.814;18.270;2023-02-15T09:25:56;43.20;;;22.80;;
59093;SDS011;44880;52.814;18.270;2023-02-15T09:28:32;40.70;;;22.90;;
59093;SDS011;44880;52.814;18.270;2023-02-15T09:31:10;41.10;;;20.90;;
59093;SDS011;44880;52.814;18.270;2023-02-15T09:33:44;40.80;;;22.80;;
59093;SDS011;44880;52.814;18.270;2023-02-15T09:36:18;43.50;;;23.70;;
59093;SDS011;44880;52.814;18.270;2023-02-15T09:38:54;42.00;;;23.00;;
59093;SDS011;44880;52.814;18.270;2023-02-15T09:41:33;42.00;;;23.80;;
59093;SDS011;44880;52.814;18.270;2023-02-15T09:44:25;40.60;;;22.60;;
59093;SDS011;44880;52.814;18.270;2023-02-15T09:47:06;39.90;;;22.80;;
59093;SDS011;44880;52.814;18.270;2023-02-15T09:50:12;39.10;;;21.40;;
59093;SDS011;44880;52.814;18.270;2023-02-15T09:52:57;41.10;;;21.30;;
59093;SDS011;44880;52.814;18.270;2023-02-15T09:55:45;42.20;;;23.70;;
59093;SDS011;44880;52.814;18.270;2023-02-15T09:58:24;44.90;;;23.70;;
59093;SDS011;44880;52.814;18.270;2023-02-15T10:01:05;42.50;;;24.30;;
59093;SDS011;44880;52.814;18.270;2023-02-15T10:03:45;39.10;;;23.10;;
59093;SDS011;44880;52.814;18.270;2023-02-15T10:06:27;39.00;;;22.30;;
59093;SDS011;44880;52.814;18.270;2023-02-15T10:09:19;40.90;;;22.20;;
59093;SDS011;44880;52.814;18.270;2023-02-15T10:12:11;37.60;;;21.60;;
59093;SDS011;44880;52.814;18.270;2023-02-15T10:14:56;37.60;;;21.80;;
59093;SDS011;44880;52.814;18.270;2023-02-15T10:17:46;41.70;;;22.80;;
59093;SDS011;44880;52.814;18.270;2023-02-15T10:20:27;38.20;;;21.70;;
59093;SDS011;44880;52.814;18.270;2023-02-15T10:23:12;41.80;;;24.40;;
59093;SDS011;44880;52.814;18.270;2023-02-15T10:25:54;42.60;;;22.70;;
59093;SDS011;44880;52.814;18.270;2023-02-15T10:28:31;39.90;;;21.30;;
59093;SDS011;44880;52.814;18.270;2023-02-15T10:31:07;42.10;;;21.70;;
59093;SDS011;44880;52.814;18.270;2023-02-15T10:33:46;41.90;;;21.00;;
59093;SDS011;44880;52.814;18.270;2023-02-15T10:36:24;39.60;;;21.70;;
59093;SDS011;44880;52.814;18.270;2023-02-15T10:39:10;40.50;;;22.50;;
59093;SDS011;44880;52.814;18.270;2023-02-15T10:41:51;37.80;;;21.40;;
59093;SDS011;44880;52.814;18.270;2023-02-15T10:44:30;41.00;;;22.50;;
59093;SDS011;44880;52.814;18.270;2023-02-15T10:47:26;41.60;;;23.20;;
59093;SDS011;44880;52.814;18.270;2023-02-15T10:50:16;41.90;;;22.80;;
59093;SDS011;44880;52.814;18.270;2023-02-15T10:52:59;42.80;;;23.60;;
59093;SDS011;44880;52.814;18.270;2023-02-15T10:55:40;45.70;;;24.90;;
59093;SDS011;44880;52.814;18.270;2023-02-15T10:58:22;47.50;;;24.50;;
59093;SDS011;44880;52.814;18.270;2023-02-15T11:01:02;46.70;;;24.70;;
59093;SDS011;44880;52.814;18.270;2023-02-15T11:03:43;48.80;;;25.00;;
59093;SDS011;44880;52.814;18.270;2023-02-15T11:06:22;51.60;;;26.50;;
59093;SDS011;44880;52.814;18.270;2023-02-15T11:08:57;47.90;;;25.30;;
59093;SDS011;44880;52.814;18.270;2023-02-15T11:11:33;50.10;;;26.10;;
59093;SDS011;44880;52.814;18.270;2023-02-15T11:14:10;52.40;;;29.60;;
59093;SDS011;44880;52.814;18.270;2023-02-15T11:16:49;53.80;;;27.30;;
59093;SDS011;44880;52.814;18.270;2023-02-15T11:19:22;48.30;;;26.20;;
59093;SDS011;44880;52.814;18.270;2023-02-15T11:21:57;47.80;;;26.40;;
59093;SDS011;44880;52.814;18.270;2023-02-15T11:24:31;45.80;;;25.80;;
59093;SDS011;44880;52.814;18.270;2023-02-15T11:27:15;49.80;;;26.10;;
59093;SDS011;44880;52.814;18.270;2023-02-15T11:29:54;45.10;;;24.20;;
59093;SDS011;44880;52.814;18.270;2023-02-15T11:32:32;49.40;;;27.60;;
59093;SDS011;44880;52.814;18.270;2023-02-15T11:35:10;50.50;;;28.10;;
59093;SDS011;44880;52.814;18.270;2023-02-15T11:37:56;50.70;;;26.10;;
59093;SDS011;44880;52.814;18.270;2023-02-15T11:40:32;43.00;;;23.10;;
59093;SDS011;44880;52.814;18.270;2023-02-15T11:43:07;43.20;;;22.70;;
59093;SDS011;44880;52.814;18.270;2023-02-15T11:45:50;43.60;;;23.40;;
59093;SDS011;44880;52.814;18.270;2023-02-15T11:48:22;40.30;;;22.60;;
59093;SDS011;44880;52.814;18.270;2023-02-15T11:53:25;40.90;;;22.40;;
59093;SDS011;44880;52.814;18.270;2023-02-15T11:56:01;40.70;;;21.90;;
59093;SDS011;44880;52.814;18.270;2023-02-15T11:58:35;43.20;;;22.80;;
59093;SDS011;44880;52.814;18.270;2023-02-15T12:01:11;39.90;;;22.20;;
59093;SDS011;44880;52.814;18.270;2023-02-15T12:03:47;44.70;;;23.50;;
59093;SDS011;44880;52.814;18.270;2023-02-15T12:06:25;41.70;;;22.80;;
59093;SDS011;44880;52.814;18.270;2023-02-15T12:09:02;42.00;;;21.50;;
59093;SDS011;44880;52.814;18.270;2023-02-15T12:11:42;47.70;;;24.30;;
59093;SDS011;44880;52.814;18.270;2023-02-15T12:14:15;45.30;;;23.90;;
59093;SDS011;44880;52.814;18.270;2023-02-15T12:16:48;45.30;;;23.90;;
59093;SDS011;44880;52.814;18.270;2023-02-15T12:19:29;43.60;;;22.70;;
59093;SDS011;44880;52.814;18.270;2023-02-15T12:22:03;44.10;;;22.60;;
59093;SDS011;44880;52.814;18.270;2023-02-15T12:24:36;43.00;;;23.20;;
59093;SDS011;44880;52.814;18.270;2023-02-15T12:27:16;43.90;;;22.60;;
59093;SDS011;44880;52.814;18.270;2023-02-15T12:29:51;43.30;;;22.50;;
59093;SDS011;44880;52.814;18.270;2023-02-15T12:32:26;42.60;;;23.10;;
59093;SDS011;44880;52.814;18.270;2023-02-15T12:35:01;44.00;;;24.80;;
59093;SDS011;44880;52.814;18.270;2023-02-15T12:37:39;44.20;;;23.40;;
59093;SDS011;44880;52.814;18.270;2023-02-15T12:40:25;43.90;;;22.60;;
59093;SDS011;44880;52.814;18.270;2023-02-15T12:42:57;44.50;;;22.10;;
59093;SDS011;44880;52.814;18.270;2023-02-15T12:45:37;45.10;;;23.90;;
59093;SDS011;44880;52.814;18.270;2023-02-15T12:48:13;44.80;;;25.10;;
59093;SDS011;44880;52.814;18.270;2023-02-15T12:50:46;43.50;;;24.40;;
59093;SDS011;44880;52.814;18.270;2023-02-15T12:53:22;46.70;;;24.90;;
59093;SDS011;44880;52.814;18.270;2023-02-15T12:56:05;47.90;;;25.40;;
59093;SDS011;44880;52.814;18.270;2023-02-15T12:58:38;43.60;;;21.90;;
59093;SDS011;44880;52.814;18.270;2023-02-15T13:01:15;48.10;;;24.80;;
59093;SDS011;44880;52.814;18.270;2023-02-15T13:03:56;44.60;;;24.10;;
59093;SDS011;44880;52.814;18.270;2023-02-15T13:06:30;45.20;;;23.30;;
59093;SDS011;44880;52.814;18.270;2023-02-15T13:09:08;43.90;;;24.00;;
59093;SDS011;44880;52.814;18.270;2023-02-15T13:11:44;48.70;;;27.00;;
59093;SDS011;44880;52.814;18.270;2023-02-15T13:14:18;47.60;;;25.10;;
59093;SDS011;44880;52.814;18.270;2023-02-15T13:16:52;44.40;;;24.40;;
59093;SDS011;44880;52.814;18.270;2023-02-15T13:19:31;43.40;;;23.70;;
59093;SDS011;44880;52.814;18.270;2023-02-15T13:22:08;45.20;;;24.60;;
59093;SDS011;44880;52.814;18.270;2023-02-15T13:24:43;46.40;;;25.50;;
59093;SDS011;44880;52.814;18.270;2023-02-15T13:27:19;45.00;;;25.20;;
59093;SDS011;44880;52.814;18.270;2023-02-15T13:29:54;46.60;;;24.10;;
59093;SDS011;44880;52.814;18.270;2023-02-15T13:32:28;47.70;;;24.70;;
59093;SDS011;44880;52.814;18.270;2023-02-15T13:35:05;47.60;;;24.50;;
59093;SDS011;44880;52.814;18.270;2023-02-15T13:37:49;46.00;;;22.60;;
59093;SDS011;44880;52.814;18.270;2023-02-15T13:40:30;48.40;;;23.80;;
59093;SDS011;44880;52.814;18.270;2023-02-15T13:43:10;48.80;;;25.00;;
59093;SDS011;44880;52.814;18.270;2023-02-15T13:45:53;46.30;;;24.80;;
59093;SDS011;44880;52.814;18.270;2023-02-15T13:48:34;49.50;;;26.30;;
59093;SDS011;44880;52.814;18.270;2023-02-15T13:51:13;43.60;;;22.90;;
59093;SDS011;44880;52.814;18.270;2023-02-15T13:53:58;49.00;;;26.00;;
59093;SDS011;44880;52.814;18.270;2023-02-15T13:56:50;46.30;;;24.00;;
59093;SDS011;44880;52.814;18.270;2023-02-15T13:59:31;48.00;;;25.60;;
59093;SDS011;44880;52.814;18.270;2023-02-15T14:08:32;53.00;;;27.30;;
59093;SDS011;44880;52.814;18.270;2023-02-15T14:11:14;47.20;;;25.40;;
59093;SDS011;44880;52.814;18.270;2023-02-15T14:14:10;51.10;;;25.40;;
59093;SDS011;44880;52.814;18.270;2023-02-15T14:16:58;47.80;;;24.90;;
59093;SDS011;44880;52.814;18.270;2023-02-15T14:19:37;54.70;;;27.00;;
59093;SDS011;44880;52.814;18.270;2023-02-15T14:22:22;46.10;;;22.70;;
59093;SDS011;44880;52.814;18.270;2023-02-15T14:25:05;44.70;;;22.70;;
59093;SDS011;44880;52.814;18.270;2023-02-15T14:27:50;42.40;;;22.30;;
59093;SDS011;44880;52.814;18.270;2023-02-15T14:30:30;42.70;;;21.50;;
59093;SDS011;44880;52.814;18.270;2023-02-15T14:33:05;45.10;;;22.70;;
59093;SDS011;44880;52.814;18.270;2023-02-15T14:35:42;46.70;;;23.90;;
59093;SDS011;44880;52.814;18.270;2023-02-15T14:38:15;46.80;;;23.90;;
59093;SDS011;44880;52.814;18.270;2023-02-15T14:40:52;47.50;;;24.20;;
59093;SDS011;44880;52.814;18.270;2023-02-15T14:43:37;45.20;;;22.20;;
59093;SDS011;44880;52.814;18.270;2023-02-15T14:46:18;45.90;;;23.50;;
59093;SDS011;44880;52.814;18.270;2023-02-15T14:48:55;49.50;;;25.70;;
59093;SDS011;44880;52.814;18.270;2023-02-15T14:57:34;46.00;;;23.00;;
59093;SDS011;44880;52.814;18.270;2023-02-15T15:03:16;52.00;;;23.30;;
59093;SDS011;44880;52.814;18.270;2023-02-15T15:05:52;47.10;;;22.80;;
59093;SDS011;44880;52.814;18.270;2023-02-15T15:08:28;49.80;;;22.70;;
59093;SDS011;44880;52.814;18.270;2023-02-15T15:14:05;56.50;;;24.60;;
59093;SDS011;44880;52.814;18.270;2023-02-15T15:16:50;52.40;;;22.90;;
59093;SDS011;44880;52.814;18.270;2023-02-15T15:22:32;54.60;;;25.60;;
59093;SDS011;44880;52.814;18.270;2023-02-15T15:25:08;54.80;;;26.90;;
59093;SDS011;44880;52.814;18.270;2023-02-15T15:27:44;55.50;;;25.70;;
59093;SDS011;44880;52.814;18.270;2023-02-15T15:36:44;54.30;;;24.00;;
59093;SDS011;44880;52.814;18.270;2023-02-15T15:39:54;51.00;;;23.30;;
59093;SDS011;44880;52.814;18.270;2023-02-15T15:42:54;55.00;;;26.20;;
59093;SDS011;44880;52.814;18.270;2023-02-15T15:45:52;55.30;;;24.10;;
59093;SDS011;44880;52.814;18.270;2023-02-15T15:48:49;58.90;;;25.00;;
59093;SDS011;44880;52.814;18.270;2023-02-15T15:51:25;55.60;;;25.90;;
59093;SDS011;44880;52.814;18.270;2023-02-15T15:54:00;56.40;;;26.40;;
59093;SDS011;44880;52.814;18.270;2023-02-15T15:56:39;59.80;;;26.30;;
59093;SDS011;44880;52.814;18.270;2023-02-15T15:59:22;55.10;;;27.10;;
59093;SDS011;44880;52.814;18.270;2023-02-15T16:01:59;62.30;;;30.30;;
59093;SDS011;44880;52.814;18.270;2023-02-15T16:04:35;62.70;;;29.10;;